Time;durP1;ratioP1;P1;durP2;ratioP2;P2;SDS_P1;SDS_P2;PMS_P1;PMS_P2;Temp;Humidity;BMP_temperature;BMP_pressure;BME280_temperature;BME280_humidity;BME280_pressure;Samples;Min_cycle;Max_cycle;Signal;HPM_P1;HPM_P2
2022/01/15 00:00:55;;;;;;;61.83;16.38;;;;;;;;;;4910273;29;20046;-78
2022/01/15 00:03:21;;;;;;;38.83;12.80;;;;;;;;;;4920245;29;20122;-77
2022/01/15 00:05:47;;;;;;;38.40;14.15;;;;;;;;;;4918913;29;20051;-78
2022/01/15 00:08:13;;;;;;;66.00;16.95;;;;;;;;;;4927280;29;20044;-78
2022/01/15 00:10:39;;;;;;;75.82;16.67;;;;;;;;;;4922566;29;20047;-78
2022/01/15 00:13:10;;;;;;;112.70;18.90;;;;;;;;;;4917736;29;20043;-78
2022/01/15 00:15:42;;;;;;;91.05;17.67;;;;;;;;;;4938578;29;20450;-77
2022/01/15 00:18:13;;;;;;;92.90;19.40;;;;;;;;;;4921033;29;20081;-77
2022/01/15 00:20:40;;;;;;;116.03;21.83;;;;;;;;;;4922342;29;20046;-79
2022/01/15 00:23:06;;;;;;;90.55;20.77;;;;;;;;;;4936904;29;20070;-77
2022/01/15 00:25:33;;;;;;;146.23;21.65;;;;;;;;;;4934119;29;20050;-78
2022/01/15 00:27:59;;;;;;;103.50;20.83;;;;;;;;;;4909853;29;20453;-77
2022/01/15 00:30:25;;;;;;;98.43;19.95;;;;;;;;;;4934945;29;20392;-78
2022/01/15 00:32:52;;;;;;;59.90;17.75;;;;;;;;;;4913972;29;20055;-78
2022/01/15 00:35:19;;;;;;;44.50;16.50;;;;;;;;;;4921225;29;20392;-78
2022/01/15 00:37:45;;;;;;;56.00;18.00;;;;;;;;;;4915708;29;20127;-79
2022/01/15 00:40:13;;;;;;;49.92;17.13;;;;;;;;;;4916695;29;20050;-79
2022/01/15 00:42:40;;;;;;;58.97;16.75;;;;;;;;;;4923272;29;20047;-78
2022/01/15 00:45:11;;;;;;;78.40;18.38;;;;;;;;;;4935180;29;20069;-77
2022/01/15 00:47:37;;;;;;;35.45;14.40;;;;;;;;;;4931507;29;20376;-78
2022/01/15 00:50:04;;;;;;;43.08;15.25;;;;;;;;;;4934859;29;20051;-78
2022/01/15 00:52:30;;;;;;;46.85;15.90;;;;;;;;;;4904770;29;20395;-78
2022/01/15 00:54:56;;;;;;;36.78;13.70;;;;;;;;;;4911599;29;20377;-78
2022/01/15 00:57:23;;;;;;;44.67;15.32;;;;;;;;;;4896911;29;20050;-78
2022/01/15 00:59:49;;;;;;;51.65;16.13;;;;;;;;;;4918352;29;20397;-77
2022/01/15 01:02:16;;;;;;;51.20;15.48;;;;;;;;;;4930078;29;20073;-76
2022/01/15 01:04:42;;;;;;;42.20;13.77;;;;;;;;;;4918469;29;20047;-77
2022/01/15 01:07:08;;;;;;;35.00;13.32;;;;;;;;;;4923519;29;20044;-77
2022/01/15 01:12:25;;;;;;;37.03;12.93;;;;;;;;;;4930792;29;20138;-78
2022/01/15 01:20:33;;;;;;;22.75;10.63;;;;;;;;;;4938186;29;20051;-79
2022/01/15 01:22:59;;;;;;;18.65;9.07;;;;;;;;;;4951436;29;20059;-77
2022/01/15 01:25:42;;;;;;;20.10;9.40;;;;;;;;;;4917337;29;20047;-77
2022/01/15 01:28:13;;;;;;;8.57;5.28;;;;;;;;;;4923053;29;20083;-77
2022/01/15 01:30:52;;;;;;;5.05;2.97;;;;;;;;;;4921965;29;20501;-77
2022/01/15 01:36:00;;;;;;;1.77;1.00;;;;;;;;;;4936735;29;20062;-77
2022/01/15 01:38:32;;;;;;;1.60;1.15;;;;;;;;;;4927804;29;20175;-77
2022/01/15 01:41:00;;;;;;;2.03;1.25;;;;;;;;;;4903980;29;20050;-76
2022/01/15 01:46:14;;;;;;;2.83;1.42;;;;;;;;;;4925245;29;20051;-77
2022/01/15 01:48:38;;;;;;;3.45;2.05;;;;;;;;;;4934135;29;20047;-77
2022/01/15 01:51:08;;;;;;;3.58;2.17;;;;;;;;;;4912668;29;20479;-77
2022/01/15 01:53:35;;;;;;;4.32;1.40;;;;;;;;;;4948031;29;20047;-77
2022/01/15 01:56:02;;;;;;;2.22;1.65;;;;;;;;;;4925268;29;20069;-77
2022/01/15 01:58:28;;;;;;;2.42;1.38;;;;;;;;;;4907824;29;20055;-78
2022/01/15 02:00:54;;;;;;;2.33;1.23;;;;;;;;;;4909790;29;20060;-77
2022/01/15 02:03:20;;;;;;;2.00;1.23;;;;;;;;;;4905223;29;20043;-78
2022/01/15 02:05:46;;;;;;;3.42;1.50;;;;;;;;;;4908487;29;20043;-78
2022/01/15 02:08:12;;;;;;;2.03;1.33;;;;;;;;;;4927048;29;20063;-78
2022/01/15 02:10:40;;;;;;;3.08;1.40;;;;;;;;;;4929971;29;20044;-77
2022/01/15 02:13:09;;;;;;;2.55;1.60;;;;;;;;;;4928214;29;20055;-77
2022/01/15 02:15:38;;;;;;;3.28;1.80;;;;;;;;;;4898436;29;20057;-77
2022/01/15 02:18:04;;;;;;;2.85;1.58;;;;;;;;;;4908422;29;20459;-77
2022/01/15 02:25:43;;;;;;;4.13;2.00;;;;;;;;;;4931767;29;20057;-77
2022/01/15 02:28:10;;;;;;;4.03;1.80;;;;;;;;;;4913954;29;20054;-77
2022/01/15 02:30:36;;;;;;;5.57;2.92;;;;;;;;;;4918222;29;20094;-77
2022/01/15 02:33:02;;;;;;;4.47;2.38;;;;;;;;;;4935574;29;20135;-77
2022/01/15 02:35:29;;;;;;;3.85;2.50;;;;;;;;;;4935864;29;20051;-77
2022/01/15 02:37:55;;;;;;;5.90;3.38;;;;;;;;;;4900166;29;20056;-76
2022/01/15 02:40:21;;;;;;;5.47;3.05;;;;;;;;;;4934082;29;20392;-78
2022/01/15 02:42:47;;;;;;;4.78;3.08;;;;;;;;;;4934187;29;20055;-77
2022/01/15 02:45:20;;;;;;;5.50;3.55;;;;;;;;;;4935791;29;20267;-77
2022/01/15 02:48:01;;;;;;;5.82;3.30;;;;;;;;;;4931536;29;20054;-77
2022/01/15 02:50:27;;;;;;;5.70;3.17;;;;;;;;;;4914087;29;20060;-78
2022/01/15 02:52:53;;;;;;;5.57;3.28;;;;;;;;;;4931743;29;20055;-78
2022/01/15 02:55:19;;;;;;;5.55;3.20;;;;;;;;;;4898196;29;20151;-78
2022/01/15 02:57:45;;;;;;;7.75;4.18;;;;;;;;;;4912315;29;20544;-78
2022/01/15 03:00:11;;;;;;;8.20;3.83;;;;;;;;;;4912045;29;20066;-78
2022/01/15 03:02:38;;;;;;;9.95;4.30;;;;;;;;;;4908534;29;20122;-77
2022/01/15 03:05:04;;;;;;;11.27;4.80;;;;;;;;;;4925985;29;20051;-78
2022/01/15 03:07:30;;;;;;;9.00;4.25;;;;;;;;;;4925438;29;20095;-78
2022/01/15 03:09:57;;;;;;;10.25;4.18;;;;;;;;;;4923745;29;20509;-78
2022/01/15 03:12:23;;;;;;;13.80;5.25;;;;;;;;;;4924179;29;20495;-77
2022/01/15 03:14:50;;;;;;;8.80;4.60;;;;;;;;;;4909221;29;20051;-76
2022/01/15 03:17:16;;;;;;;9.18;4.82;;;;;;;;;;4896337;29;20134;-78
2022/01/15 03:19:42;;;;;;;12.95;6.03;;;;;;;;;;4923129;29;20043;-78
2022/01/15 03:22:09;;;;;;;13.95;5.90;;;;;;;;;;4907111;29;20039;-77
2022/01/15 03:24:35;;;;;;;13.88;5.85;;;;;;;;;;4929253;28;20046;-76
2022/01/15 03:27:01;;;;;;;12.77;5.50;;;;;;;;;;4925650;29;20039;-75
2022/01/15 03:29:27;;;;;;;21.17;6.55;;;;;;;;;;4926694;29;20118;-76
2022/01/15 03:31:53;;;;;;;16.15;6.30;;;;;;;;;;4931914;29;20407;-77
2022/01/15 03:34:19;;;;;;;16.38;6.65;;;;;;;;;;4932230;29;20430;-76
2022/01/15 03:36:45;;;;;;;19.50;7.55;;;;;;;;;;4929207;29;20055;-77
2022/01/15 03:39:11;;;;;;;31.27;7.80;;;;;;;;;;4929602;29;20040;-78
2022/01/15 03:41:37;;;;;;;22.30;8.48;;;;;;;;;;4919112;29;20046;-77
2022/01/15 03:44:03;;;;;;;29.08;9.20;;;;;;;;;;4927683;29;20047;-78
2022/01/15 03:46:30;;;;;;;31.17;9.63;;;;;;;;;;4927875;29;20048;-77
2022/01/15 03:48:56;;;;;;;36.38;10.23;;;;;;;;;;4894890;29;20404;-77
2022/01/15 03:51:22;;;;;;;29.95;9.70;;;;;;;;;;4915384;29;20050;-78
2022/01/15 03:53:48;;;;;;;31.90;10.20;;;;;;;;;;4914053;29;20481;-77
2022/01/15 03:56:14;;;;;;;25.23;8.88;;;;;;;;;;4912760;29;20150;-77
2022/01/15 03:58:40;;;;;;;18.55;8.18;;;;;;;;;;4934765;29;20051;-76
2022/01/15 04:01:06;;;;;;;27.83;9.48;;;;;;;;;;4928342;29;20098;-77
2022/01/15 04:03:32;;;;;;;25.30;9.07;;;;;;;;;;4917468;29;20043;-77
2022/01/15 04:05:59;;;;;;;24.20;8.00;;;;;;;;;;4925618;29;20054;-77
2022/01/15 04:08:25;;;;;;;28.67;9.05;;;;;;;;;;4926661;29;20629;-78
2022/01/15 04:10:51;;;;;;;24.58;8.68;;;;;;;;;;4928058;29;20053;-78
2022/01/15 04:13:17;;;;;;;30.98;9.27;;;;;;;;;;4912398;29;20395;-78
2022/01/15 04:15:43;;;;;;;29.60;9.15;;;;;;;;;;4928036;29;20045;-77
2022/01/15 04:18:10;;;;;;;27.48;8.77;;;;;;;;;;4937568;29;20047;-76
2022/01/15 04:20:36;;;;;;;28.98;8.80;;;;;;;;;;4912902;29;20047;-77
2022/01/15 04:23:02;;;;;;;28.75;8.75;;;;;;;;;;4935589;29;20047;-76
2022/01/15 04:25:28;;;;;;;31.65;9.05;;;;;;;;;;4927389;29;20079;-77
2022/01/15 04:28:01;;;;;;;35.92;9.27;;;;;;;;;;4904073;29;20107;-76
2022/01/15 04:30:27;;;;;;;20.83;8.05;;;;;;;;;;4917520;29;20039;-77
2022/01/15 04:32:53;;;;;;;18.40;7.45;;;;;;;;;;4922545;29;20068;-77
2022/01/15 04:35:19;;;;;;;22.42;7.88;;;;;;;;;;4935798;29;20776;-77
2022/01/15 04:37:49;;;;;;;29.85;8.43;;;;;;;;;;4938960;29;20039;-77
2022/01/15 04:40:16;;;;;;;23.58;7.72;;;;;;;;;;4935345;29;20047;-77
2022/01/15 04:42:42;;;;;;;30.92;8.35;;;;;;;;;;4934954;29;20044;-78
2022/01/15 04:45:08;;;;;;;29.20;8.30;;;;;;;;;;4913605;29;20042;-78
2022/01/15 04:47:35;;;;;;;26.48;8.70;;;;;;;;;;4938487;29;20043;-76
2022/01/15 04:50:02;;;;;;;31.63;8.95;;;;;;;;;;4936490;29;20491;-77
2022/01/15 04:52:30;;;;;;;27.10;8.98;;;;;;;;;;4934091;29;20078;-77
2022/01/15 04:54:56;;;;;;;37.08;9.20;;;;;;;;;;4913068;29;20507;-78
2022/01/15 04:57:22;;;;;;;26.55;8.18;;;;;;;;;;4918419;29;20478;-77
2022/01/15 04:59:48;;;;;;;21.55;7.72;;;;;;;;;;4921744;29;20082;-77
2022/01/15 05:02:14;;;;;;;20.10;7.22;;;;;;;;;;4924159;29;20126;-77
2022/01/15 05:04:40;;;;;;;18.42;6.45;;;;;;;;;;4928113;29;20039;-77
2022/01/15 05:07:06;;;;;;;24.30;7.13;;;;;;;;;;4901147;29;20043;-76
2022/01/15 05:09:32;;;;;;;20.15;6.38;;;;;;;;;;4937035;29;20051;-77
2022/01/15 05:12:08;;;;;;;21.67;6.60;;;;;;;;;;4903276;29;20043;-77
2022/01/15 05:14:34;;;;;;;16.40;6.38;;;;;;;;;;4918057;29;20047;-76
2022/01/15 05:17:02;;;;;;;19.02;6.47;;;;;;;;;;4932713;29;20058;-76
2022/01/15 05:19:28;;;;;;;21.25;5.80;;;;;;;;;;4913685;29;20054;-77
2022/01/15 05:21:58;;;;;;;15.75;5.50;;;;;;;;;;4925360;29;20106;-76
2022/01/15 05:24:29;;;;;;;14.70;4.85;;;;;;;;;;4928938;28;20051;-77
2022/01/15 05:26:55;;;;;;;16.02;5.43;;;;;;;;;;4915413;29;20055;-76
2022/01/15 05:29:21;;;;;;;24.35;6.72;;;;;;;;;;4936732;29;21969;-77
2022/01/15 05:31:47;;;;;;;19.70;5.88;;;;;;;;;;4932901;29;20055;-77
2022/01/15 05:34:13;;;;;;;18.15;6.85;;;;;;;;;;4902080;29;20059;-78
2022/01/15 05:36:40;;;;;;;17.17;6.60;;;;;;;;;;4916749;29;20075;-76
2022/01/15 05:39:06;;;;;;;14.77;6.05;;;;;;;;;;4921606;29;20110;-76
2022/01/15 05:41:33;;;;;;;13.70;5.72;;;;;;;;;;4936124;29;20105;-76
2022/01/15 05:44:01;;;;;;;14.98;6.05;;;;;;;;;;4917816;29;20086;-76
2022/01/15 05:46:31;;;;;;;14.68;6.47;;;;;;;;;;4919034;29;20102;-77
2022/01/15 05:48:57;;;;;;;15.80;5.68;;;;;;;;;;4925872;29;20126;-77
2022/01/15 05:51:23;;;;;;;19.30;5.97;;;;;;;;;;4934560;29;20055;-77
2022/01/15 05:53:49;;;;;;;16.15;5.57;;;;;;;;;;4916253;29;20083;-77
2022/01/15 05:56:16;;;;;;;17.83;5.95;;;;;;;;;;4910726;29;20051;-79
2022/01/15 05:58:42;;;;;;;11.35;5.47;;;;;;;;;;4936229;29;20045;-77
2022/01/15 06:01:08;;;;;;;14.57;6.10;;;;;;;;;;4917180;29;20043;-77
2022/01/15 06:03:34;;;;;;;12.77;5.40;;;;;;;;;;4917438;29;20043;-77
2022/01/15 06:06:02;;;;;;;11.38;5.80;;;;;;;;;;4913816;29;20093;-77
2022/01/15 06:08:28;;;;;;;9.15;4.60;;;;;;;;;;4946669;29;20101;-77
2022/01/15 06:10:54;;;;;;;8.90;4.47;;;;;;;;;;4936023;29;20047;-77
2022/01/15 06:13:20;;;;;;;10.93;4.72;;;;;;;;;;4919620;29;20054;-78
2022/01/15 06:15:46;;;;;;;9.98;4.50;;;;;;;;;;4935627;29;20058;-77
2022/01/15 06:18:12;;;;;;;9.63;4.53;;;;;;;;;;4929011;29;20051;-77
2022/01/15 06:20:39;;;;;;;7.55;4.18;;;;;;;;;;4929587;29;20109;-77
2022/01/15 06:23:05;;;;;;;7.80;4.38;;;;;;;;;;4915906;29;20047;-77
2022/01/15 06:25:31;;;;;;;8.40;4.32;;;;;;;;;;4929357;29;20109;-77
2022/01/15 06:27:57;;;;;;;7.78;4.85;;;;;;;;;;4929809;29;20483;-76
2022/01/15 06:30:23;;;;;;;8.25;4.60;;;;;;;;;;4915753;29;20403;-77
2022/01/15 06:32:49;;;;;;;7.43;4.40;;;;;;;;;;4918204;29;20051;-77
2022/01/15 06:35:17;;;;;;;9.80;4.75;;;;;;;;;;4932354;29;20454;-77
2022/01/15 06:37:43;;;;;;;10.38;4.93;;;;;;;;;;4934642;29;20055;-77
2022/01/15 06:40:10;;;;;;;10.85;4.93;;;;;;;;;;4936265;29;20070;-78
2022/01/15 06:42:37;;;;;;;11.82;5.18;;;;;;;;;;4905992;29;20055;-77
2022/01/15 06:45:04;;;;;;;11.95;4.60;;;;;;;;;;4921155;29;20047;-77
2022/01/15 06:47:30;;;;;;;8.95;4.30;;;;;;;;;;4918438;29;20047;-78
2022/01/15 06:49:56;;;;;;;7.78;4.07;;;;;;;;;;4921173;29;20043;-78
2022/01/15 06:52:24;;;;;;;12.15;5.03;;;;;;;;;;4913796;29;20078;-78
2022/01/15 06:54:50;;;;;;;11.27;5.40;;;;;;;;;;4936256;29;20047;-78
2022/01/15 06:57:16;;;;;;;16.17;6.03;;;;;;;;;;4914883;29;20047;-79
2022/01/15 06:59:45;;;;;;;10.43;5.93;;;;;;;;;;4935408;29;20442;-79
2022/01/15 07:02:11;;;;;;;10.25;4.75;;;;;;;;;;4930923;29;20458;-78
2022/01/15 07:04:38;;;;;;;9.60;4.80;;;;;;;;;;4915816;29;20043;-78
2022/01/15 07:07:04;;;;;;;10.90;4.82;;;;;;;;;;4912657;29;20118;-78
2022/01/15 07:09:30;;;;;;;14.43;5.45;;;;;;;;;;4916635;29;20043;-80
2022/01/15 07:11:56;;;;;;;10.70;5.03;;;;;;;;;;4933469;29;20059;-82
2022/01/15 07:14:23;;;;;;;16.13;5.50;;;;;;;;;;4913256;29;20079;-78
2022/01/15 07:16:49;;;;;;;13.65;5.72;;;;;;;;;;4928642;29;20054;-78
2022/01/15 07:19:15;;;;;;;7.10;4.10;;;;;;;;;;4920004;29;20043;-79
2022/01/15 07:21:41;;;;;;;9.13;3.70;;;;;;;;;;4932002;29;20070;-78
2022/01/15 07:24:07;;;;;;;9.18;4.00;;;;;;;;;;4945914;29;20452;-77
2022/01/15 07:26:34;;;;;;;6.07;3.75;;;;;;;;;;4917253;29;20062;-78
2022/01/15 07:29:00;;;;;;;7.63;3.80;;;;;;;;;;4931854;29;20047;-77
2022/01/15 07:31:26;;;;;;;6.95;4.20;;;;;;;;;;4914841;29;20060;-78
2022/01/15 07:33:52;;;;;;;6.22;3.70;;;;;;;;;;4915337;29;20507;-78
2022/01/15 07:36:18;;;;;;;6.82;4.05;;;;;;;;;;4917457;29;20047;-77
2022/01/15 07:38:44;;;;;;;5.40;3.10;;;;;;;;;;4929082;29;20114;-80
2022/01/15 07:41:13;;;;;;;6.93;3.50;;;;;;;;;;4926464;29;20122;-76
2022/01/15 07:43:39;;;;;;;8.05;3.83;;;;;;;;;;4912834;29;20494;-78
2022/01/15 07:46:05;;;;;;;9.73;4.10;;;;;;;;;;4913025;29;20398;-90
2022/01/15 07:48:31;;;;;;;6.35;3.42;;;;;;;;;;4894658;29;20048;-81
2022/01/15 07:50:57;;;;;;;11.30;5.70;;;;;;;;;;4929213;29;20039;-81
2022/01/15 07:53:24;;;;;;;9.02;4.65;;;;;;;;;;4924788;29;20502;-78
2022/01/15 07:55:51;;;;;;;6.80;3.95;;;;;;;;;;4912245;29;20090;-78
2022/01/15 07:58:17;;;;;;;8.18;4.25;;;;;;;;;;4929190;29;20512;-77
2022/01/15 08:00:43;;;;;;;7.22;4.07;;;;;;;;;;4916269;29;20047;-79
2022/01/15 08:03:09;;;;;;;7.95;4.78;;;;;;;;;;4910243;29;20048;-77
2022/01/15 08:05:35;;;;;;;10.80;4.22;;;;;;;;;;4912118;29;20049;-78
2022/01/15 08:08:01;;;;;;;8.85;4.63;;;;;;;;;;4912210;29;20103;-81
2022/01/15 08:10:27;;;;;;;9.77;5.50;;;;;;;;;;4919943;29;20043;-76
2022/01/15 08:12:53;;;;;;;11.18;5.60;;;;;;;;;;4928293;29;20036;-76
2022/01/15 08:15:20;;;;;;;11.20;5.53;;;;;;;;;;4913503;29;20039;-77
2022/01/15 08:17:47;;;;;;;15.93;5.88;;;;;;;;;;4914579;29;20082;-79
2022/01/15 08:20:13;;;;;;;12.75;6.75;;;;;;;;;;4938315;29;20119;-80
2022/01/15 08:22:44;;;;;;;15.68;6.97;;;;;;;;;;4907863;29;20043;-81
2022/01/15 08:25:11;;;;;;;17.08;7.78;;;;;;;;;;4926976;29;20047;-78
2022/01/15 08:27:37;;;;;;;14.65;7.07;;;;;;;;;;4907355;29;20097;-77
2022/01/15 08:30:05;;;;;;;19.60;8.48;;;;;;;;;;4898962;29;20050;-79
2022/01/15 08:32:31;;;;;;;17.05;7.75;;;;;;;;;;4925104;29;20377;-77
2022/01/15 08:34:57;;;;;;;18.92;8.40;;;;;;;;;;4911030;29;20087;-77
2022/01/15 08:37:23;;;;;;;18.50;8.80;;;;;;;;;;4898022;29;20372;-79
2022/01/15 08:39:49;;;;;;;19.17;9.15;;;;;;;;;;4905791;29;20060;-77
2022/01/15 08:42:15;;;;;;;22.05;9.50;;;;;;;;;;4909656;29;20058;-85
2022/01/15 08:44:44;;;;;;;22.92;9.40;;;;;;;;;;4908869;29;20491;-84
2022/01/15 08:47:10;;;;;;;27.48;10.20;;;;;;;;;;4924900;29;20184;-77
2022/01/15 08:49:37;;;;;;;21.20;9.48;;;;;;;;;;4924591;29;20395;-79
2022/01/15 08:52:03;;;;;;;20.30;8.60;;;;;;;;;;4924830;29;20436;-77
2022/01/15 08:54:29;;;;;;;16.90;7.75;;;;;;;;;;4899658;29;20055;-77
2022/01/15 08:56:55;;;;;;;13.73;7.60;;;;;;;;;;4908517;29;20234;-76
2022/01/15 08:59:23;;;;;;;14.35;7.55;;;;;;;;;;4925815;29;20058;-76
2022/01/15 09:01:49;;;;;;;15.57;7.85;;;;;;;;;;4925867;29;20059;-75
2022/01/15 09:04:15;;;;;;;15.07;7.57;;;;;;;;;;4949331;29;20051;-75
2022/01/15 09:06:43;;;;;;;17.63;7.78;;;;;;;;;;4889821;29;20126;-76
2022/01/15 09:09:09;;;;;;;18.45;7.80;;;;;;;;;;4928318;29;20059;-76
2022/01/15 09:11:35;;;;;;;17.15;8.35;;;;;;;;;;4894915;29;20522;-76
2022/01/15 09:14:01;;;;;;;20.42;8.75;;;;;;;;;;4911003;29;20048;-75
2022/01/15 09:16:27;;;;;;;16.40;8.35;;;;;;;;;;4904222;29;20399;-75
2022/01/15 09:18:55;;;;;;;15.82;7.55;;;;;;;;;;4922837;29;20180;-76
2022/01/15 09:21:21;;;;;;;20.98;9.15;;;;;;;;;;4915745;29;20099;-76
2022/01/15 09:23:47;;;;;;;17.95;8.98;;;;;;;;;;4894460;29;20050;-81
2022/01/15 09:26:21;;;;;;;16.52;8.00;;;;;;;;;;4894654;29;20047;-76
2022/01/15 09:31:33;;;;;;;17.27;7.97;;;;;;;;;;4911646;29;20479;-75
2022/01/15 09:33:59;;;;;;;18.73;8.45;;;;;;;;;;4904706;29;20138;-75
2022/01/15 09:36:25;;;;;;;15.40;7.45;;;;;;;;;;4913599;29;20559;-78
2022/01/15 09:38:51;;;;;;;17.17;7.85;;;;;;;;;;4908280;29;20047;-86
2022/01/15 09:41:18;;;;;;;19.77;8.95;;;;;;;;;;4922467;29;20051;-79
2022/01/15 09:43:44;;;;;;;16.95;8.60;;;;;;;;;;4907900;29;20047;-78
2022/01/15 09:46:11;;;;;;;17.67;8.80;;;;;;;;;;4905830;29;20055;-83
2022/01/15 09:48:38;;;;;;;16.83;9.43;;;;;;;;;;4931715;29;20051;-79
2022/01/15 09:51:05;;;;;;;19.00;9.75;;;;;;;;;;4920720;29;20355;-82
2022/01/15 09:53:33;;;;;;;22.77;11.43;;;;;;;;;;4919128;29;20189;-84
2022/01/15 09:56:00;;;;;;;26.85;12.05;;;;;;;;;;4907942;29;20051;-80
2022/01/15 09:58:26;;;;;;;26.58;11.77;;;;;;;;;;4920115;29;21394;-86
2022/01/15 10:00:53;;;;;;;27.08;12.15;;;;;;;;;;4915074;29;20083;-82
2022/01/15 10:03:19;;;;;;;23.95;11.95;;;;;;;;;;4923444;29;20051;-82
2022/01/15 10:05:46;;;;;;;22.98;11.75;;;;;;;;;;4926592;29;20042;-83
2022/01/15 10:08:13;;;;;;;21.48;10.82;;;;;;;;;;4912157;29;20047;-84
2022/01/15 10:10:41;;;;;;;22.52;11.88;;;;;;;;;;4908511;29;20051;-84
2022/01/15 10:13:12;;;;;;;28.23;12.90;;;;;;;;;;4916761;29;20487;-87
2022/01/15 10:15:38;;;;;;;21.48;10.63;;;;;;;;;;4928041;29;20044;-80
2022/01/15 10:18:17;;;;;;;19.75;10.73;;;;;;;;;;4903793;29;20138;-79
2022/01/15 10:20:43;;;;;;;21.92;10.48;;;;;;;;;;4923567;29;20086;-79
2022/01/15 10:23:20;;;;;;;19.52;10.23;;;;;;;;;;4926120;29;20095;-79
2022/01/15 10:25:46;;;;;;;18.60;10.05;;;;;;;;;;4908298;29;20487;-80
2022/01/15 10:28:12;;;;;;;18.17;10.05;;;;;;;;;;4905548;29;20066;-79
2022/01/15 10:30:41;;;;;;;17.80;9.60;;;;;;;;;;4910174;29;20051;-81
2022/01/15 10:33:08;;;;;;;21.23;9.73;;;;;;;;;;4907101;29;20070;-80
2022/01/15 10:35:36;;;;;;;17.63;9.85;;;;;;;;;;4912843;29;20039;-79
2022/01/15 10:38:10;;;;;;;22.42;11.63;;;;;;;;;;4903964;29;20079;-79
2022/01/15 10:40:39;;;;;;;21.38;10.88;;;;;;;;;;4911832;29;20133;-81
2022/01/15 10:43:05;;;;;;;18.25;10.70;;;;;;;;;;4924996;29;20374;-79
2022/01/15 10:45:34;;;;;;;19.33;10.25;;;;;;;;;;4925371;29;20131;-78
2022/01/15 10:48:02;;;;;;;17.13;9.90;;;;;;;;;;4932695;29;20035;-79
2022/01/15 10:50:30;;;;;;;20.45;11.10;;;;;;;;;;4922875;29;20082;-79
2022/01/15 10:52:56;;;;;;;20.63;10.85;;;;;;;;;;4906872;29;20079;-80
2022/01/15 10:55:29;;;;;;;21.48;11.48;;;;;;;;;;4909582;29;20059;-85
2022/01/15 10:58:03;;;;;;;21.05;11.27;;;;;;;;;;4932332;29;20057;-80
2022/01/15 11:00:45;;;;;;;22.55;11.13;;;;;;;;;;4925054;29;20134;-82
2022/01/15 11:03:14;;;;;;;23.20;11.07;;;;;;;;;;4914013;29;20074;-79
2022/01/15 11:05:41;;;;;;;23.10;11.35;;;;;;;;;;4927344;29;20050;-79
2022/01/15 11:08:17;;;;;;;28.65;13.07;;;;;;;;;;4929006;29;20355;-79
2022/01/15 11:10:43;;;;;;;24.02;12.43;;;;;;;;;;4930198;29;20545;-79
2022/01/15 11:13:11;;;;;;;27.35;12.82;;;;;;;;;;4913068;29;20109;-79
2022/01/15 11:15:38;;;;;;;23.70;11.70;;;;;;;;;;4930141;29;20047;-79
2022/01/15 11:18:04;;;;;;;29.77;14.00;;;;;;;;;;4912226;29;20051;-79
2022/01/15 11:20:31;;;;;;;23.30;11.93;;;;;;;;;;4914716;29;20139;-79
2022/01/15 11:22:58;;;;;;;28.95;12.90;;;;;;;;;;4912984;29;20045;-80
2022/01/15 11:25:24;;;;;;;29.90;13.23;;;;;;;;;;4918860;29;20089;-81
2022/01/15 11:27:51;;;;;;;30.83;13.05;;;;;;;;;;4914246;29;20449;-80
2022/01/15 11:30:19;;;;;;;32.58;15.88;;;;;;;;;;4929989;29;20075;-79
2022/01/15 11:32:45;;;;;;;34.97;15.07;;;;;;;;;;4914939;29;20066;-80
2022/01/15 11:35:12;;;;;;;35.03;15.15;;;;;;;;;;4922878;29;20082;-80
2022/01/15 11:37:39;;;;;;;38.63;17.58;;;;;;;;;;4927387;29;20484;-81
2022/01/15 11:40:24;;;;;;;29.42;15.27;;;;;;;;;;4912233;29;20043;-81
2022/01/15 11:42:50;;;;;;;36.25;15.35;;;;;;;;;;4911339;29;20510;-80
2022/01/15 11:45:35;;;;;;;38.97;16.42;;;;;;;;;;4915539;29;20426;-80
2022/01/15 11:48:21;;;;;;;37.90;16.30;;;;;;;;;;4908306;29;20190;-81
2022/01/15 11:51:07;;;;;;;43.13;16.27;;;;;;;;;;4927011;29;20261;-81
2022/01/15 11:53:48;;;;;;;38.50;17.05;;;;;;;;;;4913058;29;20510;-88
2022/01/15 11:56:18;;;;;;;38.45;16.60;;;;;;;;;;4930607;29;20251;-86
2022/01/15 11:58:44;;;;;;;37.42;16.58;;;;;;;;;;4899110;29;20372;-87
2022/01/15 12:01:29;;;;;;;55.33;18.45;;;;;;;;;;4910828;28;20040;-89
2022/01/15 12:04:14;;;;;;;50.03;18.77;;;;;;;;;;4912708;29;20530;-81
2022/01/15 12:06:59;;;;;;;49.60;18.05;;;;;;;;;;4928877;29;20436;-82
2022/01/15 12:09:32;;;;;;;52.38;20.10;;;;;;;;;;4932846;29;20054;-85
2022/01/15 12:11:58;;;;;;;56.80;19.63;;;;;;;;;;4919510;29;20495;-79
2022/01/15 12:14:43;;;;;;;48.63;18.38;;;;;;;;;;4922660;29;20098;-79
2022/01/15 12:17:22;;;;;;;48.85;18.33;;;;;;;;;;4927919;29;20065;-81
2022/01/15 12:19:49;;;;;;;39.55;17.48;;;;;;;;;;4915385;29;20055;-79
2022/01/15 12:22:34;;;;;;;46.20;18.23;;;;;;;;;;4933556;29;20382;-81
2022/01/15 12:25:01;;;;;;;48.53;18.73;;;;;;;;;;4940278;29;20063;-81
2022/01/15 12:27:29;;;;;;;43.40;18.17;;;;;;;;;;4919185;29;20047;-81
2022/01/15 12:30:24;;;;;;;46.75;18.52;;;;;;;;;;4919679;29;20043;-82
2022/01/15 12:32:51;;;;;;;51.92;19.77;;;;;;;;;;4899078;29;20594;-80
2022/01/15 12:35:22;;;;;;;48.45;18.98;;;;;;;;;;4936866;29;20054;-86
2022/01/15 12:37:54;;;;;;;42.53;18.45;;;;;;;;;;4918459;29;20499;-87
2022/01/15 12:40:22;;;;;;;54.22;20.35;;;;;;;;;;4927285;28;20142;-82
2022/01/15 12:42:55;;;;;;;45.97;18.38;;;;;;;;;;4929035;29;20052;-84
2022/01/15 12:45:21;;;;;;;41.22;18.23;;;;;;;;;;4912506;29;20134;-85
2022/01/15 12:47:51;;;;;;;54.38;18.30;;;;;;;;;;4931595;29;20186;-80
2022/01/15 12:50:17;;;;;;;48.15;19.08;;;;;;;;;;4916226;29;20050;-81
2022/01/15 12:52:43;;;;;;;39.80;17.63;;;;;;;;;;4916680;29;20044;-81
2022/01/15 12:55:09;;;;;;;56.33;19.73;;;;;;;;;;4912887;28;20115;-82
2022/01/15 12:57:40;;;;;;;51.90;20.48;;;;;;;;;;4926920;29;20055;-81
2022/01/15 13:00:33;;;;;;;43.58;19.65;;;;;;;;;;4914383;29;20198;-83
2022/01/15 13:03:00;;;;;;;53.85;20.60;;;;;;;;;;4921797;29;20078;-80
2022/01/15 13:05:31;;;;;;;57.15;21.33;;;;;;;;;;4907855;29;20046;-79
2022/01/15 13:07:58;;;;;;;61.40;22.75;;;;;;;;;;4926651;29;20058;-81
2022/01/15 13:10:25;;;;;;;59.95;23.75;;;;;;;;;;4923002;29;20043;-81
2022/01/15 13:12:51;;;;;;;59.88;22.25;;;;;;;;;;4924835;29;20048;-81
2022/01/15 13:15:21;;;;;;;55.13;21.90;;;;;;;;;;4901152;29;20043;-81
2022/01/15 13:17:47;;;;;;;49.85;22.33;;;;;;;;;;4923745;29;20487;-81
2022/01/15 13:20:32;;;;;;;44.67;20.73;;;;;;;;;;4920591;29;20075;-80
2022/01/15 13:22:59;;;;;;;44.67;20.23;;;;;;;;;;4928892;29;20051;-80
2022/01/15 13:25:26;;;;;;;40.50;20.05;;;;;;;;;;4912139;29;20050;-81
2022/01/15 13:27:53;;;;;;;50.63;21.35;;;;;;;;;;4911772;29;20056;-79
2022/01/15 13:30:19;;;;;;;47.75;22.23;;;;;;;;;;4929163;29;20055;-81
2022/01/15 13:32:57;;;;;;;50.42;23.17;;;;;;;;;;4913186;29;20048;-80
2022/01/15 13:35:33;;;;;;;49.00;21.58;;;;;;;;;;4923956;29;20332;-80
2022/01/15 13:38:01;;;;;;;44.78;21.50;;;;;;;;;;4913312;29;20055;-80
2022/01/15 13:40:39;;;;;;;38.95;19.88;;;;;;;;;;4917185;29;20134;-83
2022/01/15 13:43:07;;;;;;;38.85;19.25;;;;;;;;;;4908346;29;20467;-82
2022/01/15 13:45:34;;;;;;;41.97;20.75;;;;;;;;;;4916725;29;20134;-79
2022/01/15 13:48:28;;;;;;;36.53;19.27;;;;;;;;;;4913319;29;20047;-80
2022/01/15 13:53:40;;;;;;;43.13;21.45;;;;;;;;;;4925344;29;20043;-81
2022/01/15 13:56:18;;;;;;;49.25;21.77;;;;;;;;;;4925163;29;20094;-81
2022/01/15 13:58:45;;;;;;;39.15;20.30;;;;;;;;;;4933447;29;20132;-79
2022/01/15 14:01:19;;;;;;;38.47;20.10;;;;;;;;;;4934520;29;20052;-79
2022/01/15 14:03:45;;;;;;;50.75;20.17;;;;;;;;;;4922759;29;20523;-81
2022/01/15 14:06:11;;;;;;;54.05;21.98;;;;;;;;;;4939863;29;20040;-81
2022/01/15 14:08:37;;;;;;;42.42;20.98;;;;;;;;;;4935084;29;20053;-79
2022/01/15 14:11:14;;;;;;;54.75;22.65;;;;;;;;;;4930162;29;20526;-79
2022/01/15 14:13:40;;;;;;;56.22;23.63;;;;;;;;;;4916395;29;20047;-80
2022/01/15 14:16:20;;;;;;;67.55;23.52;;;;;;;;;;4916943;29;20051;-81
2022/01/15 14:18:49;;;;;;;75.40;25.75;;;;;;;;;;4931845;29;20163;-80
2022/01/15 14:21:39;;;;;;;62.40;25.05;;;;;;;;;;4934247;29;20167;-81
2022/01/15 14:24:18;;;;;;;72.35;24.75;;;;;;;;;;4925676;28;20522;-79
2022/01/15 14:26:49;;;;;;;63.50;24.92;;;;;;;;;;4926541;29;20047;-80
2022/01/15 14:29:15;;;;;;;73.88;27.10;;;;;;;;;;4910439;29;20158;-80
2022/01/15 14:31:41;;;;;;;73.55;26.58;;;;;;;;;;4913090;29;20063;-80
2022/01/15 14:34:08;;;;;;;67.10;25.40;;;;;;;;;;4911707;29;20912;-80
2022/01/15 14:36:34;;;;;;;59.67;24.38;;;;;;;;;;4913267;29;20719;-80
2022/01/15 14:39:04;;;;;;;59.55;23.63;;;;;;;;;;4895798;29;20051;-80
2022/01/15 14:41:31;;;;;;;67.75;24.95;;;;;;;;;;4931020;29;20913;-81
2022/01/15 14:43:57;;;;;;;57.63;24.20;;;;;;;;;;4932915;29;20098;-81
2022/01/15 14:46:23;;;;;;;60.50;22.60;;;;;;;;;;4912010;29;20054;-82
2022/01/15 14:48:49;;;;;;;56.55;25.08;;;;;;;;;;4897734;29;20126;-81
2022/01/15 14:51:16;;;;;;;55.35;24.58;;;;;;;;;;4924354;29;20422;-82
2022/01/15 14:53:43;;;;;;;62.42;25.25;;;;;;;;;;4924477;29;20122;-81
2022/01/15 14:56:10;;;;;;;59.22;23.90;;;;;;;;;;4919308;29;20043;-81